createdAt,value
2022-11-23T00:00:20.842Z,9.30
2022-11-23T00:02:48.637Z,9.63
2022-11-23T00:05:16.310Z,8.85
2022-11-23T00:07:44.045Z,8.80
2022-11-23T00:10:13.435Z,10.15
2022-11-23T00:12:41.092Z,9.45
2022-11-23T00:15:09.457Z,8.98
2022-11-23T00:17:37.066Z,9.68
2022-11-23T00:20:05.296Z,10.07
2022-11-23T00:22:32.955Z,10.30
2022-11-23T00:25:00.741Z,10.27
2022-11-23T00:27:29.830Z,10.20
2022-11-23T00:29:57.466Z,9.23
2022-11-23T00:32:25.127Z,10.35
2022-11-23T00:34:52.767Z,10.23
2022-11-23T00:37:20.427Z,9.98
2022-11-23T00:39:48.072Z,9.95
2022-11-23T00:42:15.748Z,10.05
2022-11-23T00:44:44.824Z,9.40
2022-11-23T00:47:12.474Z,9.65
2022-11-23T00:49:40.129Z,9.60
2022-11-23T00:52:07.821Z,10.05
2022-11-23T00:54:35.426Z,9.95
2022-11-23T00:57:03.073Z,9.80
2022-11-23T00:59:31.130Z,9.43
2022-11-23T01:02:00.586Z,9.75
2022-11-23T01:04:29.165Z,9.73
2022-11-23T01:06:58.068Z,10.38
2022-11-23T01:09:26.862Z,10.10
2022-11-23T01:11:55.203Z,10.35
2022-11-23T01:14:23.296Z,9.93
2022-11-23T01:16:51.065Z,9.68
2022-11-23T01:19:21.485Z,9.27
2022-11-23T01:21:49.448Z,9.07
2022-11-23T01:24:18.795Z,9.38
2022-11-23T01:26:46.727Z,8.93
2022-11-23T01:29:14.703Z,9.15
2022-11-23T01:31:46.601Z,8.95
2022-11-23T01:34:15.258Z,9.50
2022-11-23T01:36:45.238Z,9.23
2022-11-23T01:39:13.543Z,9.00
2022-11-23T01:41:43.360Z,9.38
2022-11-23T01:44:30.750Z,8.93
2022-11-23T01:46:59.972Z,9.23
2022-11-23T01:49:29.293Z,9.15
2022-11-23T01:52:00.847Z,9.83
2022-11-23T01:54:33.122Z,10.15
2022-11-23T01:57:03.516Z,9.50
2022-11-23T01:59:32.151Z,9.63
2022-11-23T02:02:00.666Z,10.10
2022-11-23T02:04:31.146Z,9.75
2022-11-23T02:07:01.486Z,9.90
2022-11-23T02:09:30.919Z,10.02
2022-11-23T02:11:59.009Z,10.15
2022-11-23T02:14:27.067Z,10.07
2022-11-23T02:16:54.757Z,10.15
2022-11-23T02:19:34.342Z,10.53
2022-11-23T02:22:03.762Z,10.30
2022-11-23T02:24:35.480Z,9.30
2022-11-23T02:27:06.945Z,10.32
2022-11-23T02:29:34.864Z,10.13
2022-11-23T02:32:02.579Z,10.10
2022-11-23T02:34:30.352Z,9.65
2022-11-23T02:36:58.797Z,9.50
2022-11-23T02:39:30.612Z,9.82
2022-11-23T02:41:59.453Z,9.38
2022-11-23T02:44:33.688Z,9.13
2022-11-23T02:47:01.474Z,9.52
2022-11-23T02:49:29.463Z,8.80
2022-11-23T02:51:57.369Z,8.88
2022-11-23T02:54:24.992Z,8.63
2022-11-23T02:56:52.689Z,8.82
2022-11-23T02:59:20.659Z,8.50
2022-11-23T03:01:50.336Z,8.50
2022-11-23T03:04:20.764Z,8.27
2022-11-23T03:06:50.889Z,8.82
2022-11-23T03:09:18.729Z,8.05
2022-11-23T03:11:46.368Z,8.25
2022-11-23T03:14:14.133Z,8.10
2022-11-23T03:16:41.825Z,7.15
2022-11-23T03:19:10.893Z,7.40
2022-11-23T03:21:38.658Z,7.63
2022-11-23T03:24:06.961Z,7.32
2022-11-23T03:26:34.672Z,7.07
2022-11-23T03:29:02.336Z,7.15
2022-11-23T03:31:29.999Z,6.93
2022-11-23T03:33:57.764Z,6.82
2022-11-23T03:36:26.834Z,6.32
2022-11-23T03:38:54.496Z,6.55
2022-11-23T03:41:22.209Z,6.78
2022-11-23T03:43:49.867Z,6.13
2022-11-23T03:46:17.591Z,5.67
2022-11-23T03:48:45.306Z,5.63
2022-11-23T03:51:13.001Z,5.68
2022-11-23T03:53:42.098Z,5.07
2022-11-23T03:56:09.985Z,5.55
2022-11-23T03:58:37.700Z,5.63
2022-11-23T04:01:05.378Z,4.65
2022-11-23T04:03:33.344Z,5.40
2022-11-23T04:06:01.069Z,5.32
2022-11-23T04:08:28.698Z,4.68
2022-11-23T04:10:59.133Z,4.55
2022-11-23T04:13:27.231Z,4.75
2022-11-23T04:15:54.874Z,4.95
2022-11-23T04:18:22.643Z,4.63
2022-11-23T04:20:50.363Z,4.88
2022-11-23T04:23:18.049Z,5.25
2022-11-23T04:25:46.474Z,4.90
2022-11-23T04:28:15.521Z,4.75
2022-11-23T04:30:43.209Z,4.20
2022-11-23T04:33:10.916Z,4.68
2022-11-23T04:35:38.617Z,4.35
2022-11-23T04:38:06.346Z,4.65
2022-11-23T04:40:34.193Z,4.67
2022-11-23T04:43:02.310Z,3.85
2022-11-23T04:45:31.403Z,4.25
2022-11-23T04:47:59.093Z,3.88
2022-11-23T04:50:26.749Z,3.90
2022-11-23T04:52:54.544Z,4.45
2022-11-23T04:55:22.283Z,4.45
2022-11-23T04:57:50.255Z,4.30
2022-11-23T05:00:18.568Z,3.53
2022-11-23T05:02:47.641Z,3.90
2022-11-23T05:05:15.448Z,3.60
2022-11-23T05:07:43.179Z,3.42
2022-11-23T05:10:11.229Z,4.30
2022-11-23T05:12:38.936Z,3.13
2022-11-23T05:15:07.468Z,4.03
2022-11-23T05:17:35.350Z,3.83
2022-11-23T05:20:05.175Z,3.53
2022-11-23T05:22:32.942Z,3.95
2022-11-23T05:25:00.805Z,3.90
2022-11-23T05:27:28.428Z,3.28
2022-11-23T05:29:56.093Z,3.92
2022-11-23T05:32:23.730Z,3.13
2022-11-23T05:34:51.472Z,3.47
2022-11-23T05:37:20.471Z,3.13
2022-11-23T05:39:48.087Z,3.22
2022-11-23T05:42:15.820Z,3.17
2022-11-23T05:44:43.480Z,3.08
2022-11-23T05:47:11.137Z,3.53
2022-11-23T05:49:38.788Z,3.22
2022-11-23T05:52:06.780Z,3.33
2022-11-23T05:54:36.229Z,3.22
2022-11-23T05:57:03.926Z,3.13
2022-11-23T05:59:32.037Z,3.30
2022-11-23T06:01:59.850Z,2.67
2022-11-23T06:04:27.605Z,3.47
2022-11-23T06:06:57.295Z,3.20
2022-11-23T06:09:24.958Z,3.13
2022-11-23T06:11:53.992Z,3.58
2022-11-23T06:14:21.676Z,3.63
2022-11-23T06:16:49.556Z,3.60
2022-11-23T06:19:17.316Z,4.03
2022-11-23T06:21:50.134Z,3.80
2022-11-23T06:24:18.099Z,3.20
2022-11-23T06:26:45.732Z,3.90
2022-11-23T06:29:16.208Z,3.40
2022-11-23T06:31:43.833Z,3.40
2022-11-23T06:34:11.541Z,3.25
2022-11-23T06:36:39.221Z,3.73
2022-11-23T06:39:07.086Z,3.35
2022-11-23T06:41:34.781Z,3.75
2022-11-23T06:44:02.562Z,3.35
2022-11-23T06:46:31.643Z,3.45
2022-11-23T06:48:59.432Z,3.38
2022-11-23T06:51:27.080Z,3.10
2022-11-23T06:53:55.173Z,3.03
2022-11-23T06:56:23.231Z,2.88
2022-11-23T06:58:50.933Z,2.80
2022-11-23T07:01:18.571Z,2.85
2022-11-23T07:03:47.757Z,3.13
2022-11-23T07:06:15.500Z,2.90
2022-11-23T07:08:44.267Z,3.05
2022-11-23T07:11:12.510Z,3.53
2022-11-23T07:13:40.450Z,3.20
2022-11-23T07:16:08.724Z,3.33
2022-11-23T07:18:36.381Z,2.97
2022-11-23T07:21:05.396Z,3.38
2022-11-23T07:23:33.092Z,2.63
2022-11-23T07:26:00.702Z,2.70
2022-11-23T07:28:28.318Z,3.17
2022-11-23T07:30:56.029Z,2.88
2022-11-23T07:33:23.636Z,2.67
2022-11-23T07:35:51.397Z,3.38
2022-11-23T07:38:20.353Z,2.75
2022-11-23T07:40:50.306Z,2.53
2022-11-23T07:43:17.919Z,3.63
2022-11-23T07:45:45.581Z,3.35
2022-11-23T07:48:13.565Z,3.60
2022-11-23T07:50:41.205Z,2.80
2022-11-23T07:53:09.166Z,3.00
2022-11-23T07:55:38.163Z,2.65
2022-11-23T07:58:06.482Z,2.80
2022-11-23T08:00:34.123Z,2.80
2022-11-23T08:03:26.568Z,3.08
2022-11-23T08:05:49.433Z,3.47
2022-11-23T08:08:17.078Z,3.50
2022-11-23T08:10:51.417Z,4.28
2022-11-23T08:13:20.883Z,3.70
2022-11-23T08:15:53.932Z,3.60
2022-11-23T08:18:23.056Z,3.63
2022-11-23T08:20:50.895Z,3.78
2022-11-23T08:23:18.696Z,2.85
2022-11-23T08:25:48.162Z,3.70
2022-11-23T08:28:15.874Z,5.05
2022-11-23T08:30:43.608Z,3.70
2022-11-23T08:33:11.303Z,14.23
2022-11-23T08:35:40.008Z,4.53
2022-11-23T08:38:09.027Z,3.33
2022-11-23T08:40:37.129Z,3.50
2022-11-23T08:43:06.589Z,4.78
2022-11-23T08:45:34.518Z,3.80
2022-11-23T08:48:02.503Z,2.37
2022-11-23T08:50:30.602Z,3.05
2022-11-23T08:52:58.986Z,2.85
2022-11-23T08:55:27.568Z,3.13
2022-11-23T08:57:56.124Z,2.85
2022-11-23T09:00:25.873Z,2.90
2022-11-23T09:02:53.582Z,3.38
2022-11-23T09:05:21.813Z,2.83
2022-11-23T09:07:49.587Z,2.33
2022-11-23T09:10:19.106Z,2.25
2022-11-23T09:12:47.190Z,2.75
2022-11-23T09:15:15.014Z,2.13
2022-11-23T09:17:44.531Z,2.78
2022-11-23T09:20:13.105Z,2.40
2022-11-23T09:22:40.729Z,2.50
2022-11-23T09:25:10.289Z,2.85
2022-11-23T09:27:38.065Z,2.30
2022-11-23T09:30:06.743Z,2.38
2022-11-23T09:32:34.397Z,2.40
2022-11-23T09:35:03.454Z,2.55
2022-11-23T09:37:31.165Z,3.00
2022-11-23T09:39:58.799Z,2.65
2022-11-23T09:42:38.550Z,2.67
2022-11-23T09:45:20.244Z,1.90
2022-11-23T09:48:00.942Z,2.05
2022-11-23T09:50:35.519Z,3.35
2022-11-23T09:53:07.008Z,2.80
2022-11-23T09:55:38.588Z,2.28
2022-11-23T09:58:07.381Z,2.30
2022-11-23T10:00:38.917Z,2.65
2022-11-23T10:03:06.577Z,2.47
2022-11-23T10:05:39.003Z,3.03
2022-11-23T10:08:12.918Z,2.58
2022-11-23T10:10:44.376Z,2.22
2022-11-23T10:14:01.101Z,1.95
2022-11-23T10:17:19.743Z,2.30
2022-11-23T10:19:58.375Z,2.05
2022-11-23T10:22:30.458Z,3.05
2022-11-23T10:24:58.053Z,1.80
2022-11-23T10:27:26.338Z,1.52
2022-11-23T10:29:56.405Z,1.47
2022-11-23T10:32:31.976Z,1.90
2022-11-23T10:35:04.328Z,1.60
2022-11-23T10:39:45.515Z,1.45
2022-11-23T10:42:20.138Z,1.40
2022-11-23T10:44:48.726Z,1.50
2022-11-23T10:47:35.091Z,1.30
2022-11-23T10:50:03.912Z,1.50
2022-11-23T10:52:32.883Z,1.40
2022-11-23T10:55:03.902Z,1.50
2022-11-23T10:57:33.842Z,1.77
2022-11-23T11:00:04.618Z,1.67
2022-11-23T11:02:39.545Z,1.45
2022-11-23T11:05:53.440Z,1.60
2022-11-23T11:08:16.923Z,1.55
2022-11-23T11:10:50.118Z,1.40
2022-11-23T11:13:29.850Z,1.65
2022-11-23T11:15:59.588Z,1.30
2022-11-23T11:18:32.380Z,1.40
2022-11-23T11:21:03.284Z,1.50
2022-11-23T11:23:32.079Z,1.50
2022-11-23T11:26:09.744Z,2.60
2022-11-23T11:28:40.314Z,2.20
2022-11-23T11:31:34.895Z,2.33
2022-11-23T11:34:09.287Z,2.00
2022-11-23T11:36:40.554Z,1.80
2022-11-23T11:39:20.709Z,2.38
2022-11-23T11:41:51.068Z,1.13
2022-11-23T11:44:21.540Z,1.42
2022-11-23T11:46:53.872Z,1.25
2022-11-23T11:49:56.317Z,1.10
2022-11-23T11:52:27.265Z,1.25
2022-11-23T11:54:57.632Z,1.10
2022-11-23T11:57:29.448Z,1.17
2022-11-23T12:02:36.154Z,1.35
2022-11-23T12:05:12.799Z,1.20
2022-11-23T12:07:45.522Z,1.00
2022-11-23T12:10:17.388Z,1.00
2022-11-23T12:12:45.263Z,1.17
2022-11-23T12:15:47.640Z,1.20
2022-11-23T12:18:26.951Z,1.40
2022-11-23T12:20:58.772Z,1.05
2022-11-23T12:23:34.863Z,1.58
2022-11-23T12:26:13.693Z,1.33
2022-11-23T12:29:00.199Z,1.47
2022-11-23T12:31:40.779Z,1.23
2022-11-23T12:34:17.744Z,1.17
2022-11-23T12:37:00.804Z,1.17
2022-11-23T12:39:43.354Z,1.20
2022-11-23T12:42:13.935Z,1.40
2022-11-23T12:44:54.451Z,1.27
2022-11-23T12:47:29.942Z,0.82
2022-11-23T12:50:04.675Z,1.00
2022-11-23T12:52:47.243Z,1.02
2022-11-23T12:55:20.504Z,0.82
2022-11-23T12:57:51.401Z,1.13
2022-11-23T13:00:20.877Z,2.30
2022-11-23T13:03:13.605Z,1.80
2022-11-23T13:10:14.146Z,1.63
2022-11-23T13:13:14.042Z,0.88
2022-11-23T13:16:02.605Z,1.07
2022-11-23T13:18:42.898Z,1.40
2022-11-23T13:21:18.926Z,1.33
2022-11-23T13:23:46.728Z,1.52
2022-11-23T13:26:17.759Z,1.73
2022-11-23T13:28:45.957Z,1.02
2022-11-23T13:31:27.764Z,1.30
2022-11-23T13:33:56.746Z,1.70
2022-11-23T13:37:15.292Z,1.25
2022-11-23T13:40:04.082Z,2.00
2022-11-23T13:42:34.983Z,1.25
2022-11-23T13:45:23.507Z,1.75
2022-11-23T13:48:34.342Z,2.28
2022-11-23T13:51:02.357Z,1.52
2022-11-23T13:53:32.516Z,1.48
2022-11-23T13:56:18.816Z,1.60
2022-11-23T13:58:55.684Z,3.95
2022-11-23T14:02:04.372Z,2.47
2022-11-23T14:04:33.068Z,1.48
2022-11-23T14:07:03.666Z,1.70
2022-11-23T14:09:35.656Z,1.58
2022-11-23T14:12:08.556Z,2.50
2022-11-23T14:14:48.369Z,1.75
2022-11-23T14:22:02.404Z,3.95
2022-11-23T14:26:29.775Z,1.80
2022-11-23T14:29:24.216Z,1.50
2022-11-23T14:32:00.969Z,1.58
2022-11-23T14:34:35.723Z,1.77
2022-11-23T14:37:09.441Z,1.30
2022-11-23T14:39:55.404Z,1.02
2022-11-23T14:42:26.492Z,0.93
2022-11-23T14:44:54.669Z,0.75
2022-11-23T14:47:30.372Z,1.02
2022-11-23T14:49:58.700Z,0.90
2022-11-23T14:52:28.524Z,0.73
2022-11-23T14:54:57.644Z,1.00
2022-11-23T14:57:29.158Z,1.00
2022-11-23T14:59:58.606Z,1.40
2022-11-23T15:02:32.506Z,0.90
2022-11-23T15:05:07.767Z,1.00
2022-11-23T15:07:44.831Z,0.93
2022-11-23T15:10:22.740Z,1.15
2022-11-23T15:12:51.804Z,1.08
2022-11-23T15:15:21.081Z,1.25
2022-11-23T15:17:52.950Z,1.10
2022-11-23T15:21:22.601Z,1.20
2022-11-23T15:23:54.296Z,0.80
2022-11-23T15:26:46.118Z,1.00
2022-11-23T15:29:33.519Z,0.85
2022-11-23T15:34:50.546Z,1.42
2022-11-23T15:37:20.011Z,2.13
2022-11-23T15:39:48.408Z,1.42
2022-11-23T15:42:18.599Z,1.85
2022-11-23T15:44:51.227Z,2.13
2022-11-23T15:47:22.852Z,1.25
2022-11-23T15:49:51.040Z,1.02
2022-11-23T15:53:55.488Z,1.90
2022-11-23T15:56:55.357Z,2.70
2022-11-23T15:59:31.585Z,5.85
2022-11-23T16:02:00.380Z,4.95
2022-11-23T16:04:36.504Z,5.85
2022-11-23T16:07:16.538Z,4.00
2022-11-23T16:09:52.358Z,3.72
2022-11-23T16:12:25.636Z,1.65
2022-11-23T16:14:54.128Z,1.75
2022-11-23T16:17:23.707Z,1.20
2022-11-23T16:19:52.743Z,1.55
2022-11-23T16:22:24.914Z,1.38
2022-11-23T16:24:55.495Z,2.70
2022-11-23T16:27:25.833Z,4.40
2022-11-23T16:29:57.586Z,3.55
2022-11-23T16:32:30.785Z,2.35
2022-11-23T16:35:00.499Z,4.32
2022-11-23T16:37:28.934Z,8.52
2022-11-23T16:39:56.969Z,20.65
2022-11-23T16:42:27.092Z,5.65
2022-11-23T16:44:54.800Z,5.18
2022-11-23T16:47:25.056Z,4.97
2022-11-23T16:49:53.636Z,10.18
2022-11-23T16:52:22.626Z,11.68
2022-11-23T16:54:50.496Z,12.55
2022-11-23T16:57:21.597Z,7.07
2022-11-23T16:59:50.980Z,7.05
2022-11-23T17:02:19.307Z,5.00
2022-11-23T17:04:47.128Z,3.88
2022-11-23T17:07:15.038Z,5.97
2022-11-23T17:12:00.059Z,3.88
2022-11-23T17:14:29.740Z,2.20
2022-11-23T17:17:02.233Z,2.43
2022-11-23T17:19:30.347Z,2.10
2022-11-23T17:21:58.446Z,5.05
2022-11-23T17:24:26.084Z,3.72
2022-11-23T17:26:54.267Z,6.40
2022-11-23T17:29:24.119Z,3.55
2022-11-23T17:31:52.103Z,5.38
2022-11-23T17:34:19.782Z,2.65
2022-11-23T17:36:48.621Z,2.90
2022-11-23T17:39:20.201Z,3.17
2022-11-23T17:41:49.135Z,3.30
2022-11-23T17:44:17.566Z,4.82
2022-11-23T17:46:47.203Z,6.60
2022-11-23T17:49:16.990Z,6.05
2022-11-23T17:51:44.621Z,3.70
2022-11-23T17:54:12.345Z,4.28
2022-11-23T17:56:40.053Z,4.20
2022-11-23T17:59:08.085Z,6.85
2022-11-23T18:01:35.947Z,6.00
2022-11-23T18:04:05.308Z,7.95
2022-11-23T18:06:33.048Z,8.45
2022-11-23T18:09:00.721Z,7.40
2022-11-23T18:11:28.824Z,7.90
2022-11-23T18:13:56.516Z,8.93
2022-11-23T18:16:24.354Z,10.57
2022-11-23T18:18:52.273Z,5.70
2022-11-23T18:21:21.323Z,9.10
2022-11-23T18:23:49.007Z,7.70
2022-11-23T18:26:21.306Z,16.60
2022-11-23T18:28:49.440Z,15.38
2022-11-23T18:31:17.155Z,9.98
2022-11-23T18:33:45.064Z,5.80
2022-11-23T18:36:13.172Z,6.65
2022-11-23T18:38:44.753Z,6.10
2022-11-23T18:41:13.177Z,6.47
2022-11-23T18:43:40.886Z,6.72
2022-11-23T18:46:10.210Z,4.80
2022-11-23T18:48:38.524Z,4.60
2022-11-23T18:51:11.525Z,4.80
2022-11-23T18:53:39.146Z,10.50
2022-11-23T18:56:09.947Z,6.25
2022-11-23T18:58:39.360Z,4.60
2022-11-23T19:01:12.660Z,4.45
2022-11-23T19:03:41.884Z,5.00
2022-11-23T19:06:11.875Z,4.30
2022-11-23T19:08:40.068Z,5.13
2022-11-23T19:11:12.781Z,5.20
2022-11-23T19:13:40.919Z,3.67
2022-11-23T19:16:10.538Z,4.38
2022-11-23T19:18:38.452Z,8.95
2022-11-23T19:21:13.682Z,8.73
2022-11-23T19:23:41.450Z,11.07
2022-11-23T19:26:10.601Z,9.10
2022-11-23T19:28:38.649Z,5.20
2022-11-23T19:31:14.007Z,3.95
2022-11-23T19:33:42.013Z,3.77
2022-11-23T19:36:11.541Z,4.68
2022-11-23T19:38:39.567Z,3.67
2022-11-23T19:41:07.728Z,3.60
2022-11-23T19:43:37.209Z,4.65
2022-11-23T19:46:07.241Z,3.72
2022-11-23T19:48:35.267Z,3.75
2022-11-23T19:51:04.625Z,4.18
2022-11-23T19:53:33.951Z,3.80
2022-11-23T19:56:03.104Z,4.88
2022-11-23T19:58:35.339Z,4.30
2022-11-23T20:01:06.412Z,4.57
2022-11-23T20:03:35.705Z,5.82
2022-11-23T20:06:06.009Z,4.10
2022-11-23T20:08:33.843Z,4.20
2022-11-23T20:11:07.535Z,4.57
2022-11-23T20:13:36.027Z,4.30
2022-11-23T20:16:06.625Z,4.30
2022-11-23T20:18:34.595Z,3.80
2022-11-23T20:21:02.868Z,5.28
2022-11-23T20:23:30.835Z,3.87
2022-11-23T20:25:59.056Z,4.25
2022-11-23T20:28:27.109Z,4.23
2022-11-23T20:30:54.860Z,4.68
2022-11-23T20:33:23.940Z,8.00
2022-11-23T20:35:51.888Z,5.03
2022-11-23T20:38:19.690Z,5.15
2022-11-23T20:40:47.458Z,6.07
2022-11-23T20:43:15.482Z,7.20
2022-11-23T20:45:43.184Z,7.32
2022-11-23T20:48:10.864Z,6.37
2022-11-23T20:50:39.972Z,9.13
2022-11-23T20:53:07.747Z,7.90
2022-11-23T20:55:36.569Z,7.80
2022-11-23T20:58:04.329Z,7.85
2022-11-23T21:00:32.143Z,7.30
2022-11-23T21:02:59.886Z,7.67
2022-11-23T21:05:27.744Z,6.72
2022-11-23T21:13:03.683Z,9.20
2022-11-23T21:15:31.367Z,6.25
2022-11-23T21:17:58.959Z,6.82
2022-11-23T21:20:26.647Z,7.07
2022-11-23T21:22:54.304Z,7.18
2022-11-23T21:25:21.925Z,7.07
2022-11-23T21:27:50.985Z,7.50
2022-11-23T21:30:18.915Z,8.18
2022-11-23T21:32:50.482Z,7.82
2022-11-23T21:35:18.149Z,7.70
2022-11-23T21:37:45.781Z,8.40
2022-11-23T21:40:13.601Z,7.63
2022-11-23T21:42:41.226Z,8.70
2022-11-23T21:45:10.926Z,9.52
2022-11-23T21:47:38.617Z,7.95
2022-11-23T21:50:06.951Z,8.35
2022-11-23T21:52:34.585Z,7.78
2022-11-23T21:55:02.257Z,7.70
2022-11-23T21:57:29.960Z,7.80
2022-11-23T21:59:57.796Z,7.60
2022-11-23T22:02:27.081Z,7.43
2022-11-23T22:04:55.013Z,7.22
2022-11-23T22:07:22.807Z,8.57
2022-11-23T22:09:50.712Z,7.85
2022-11-23T22:12:18.501Z,6.90
2022-11-23T22:14:46.239Z,7.28
2022-11-23T22:17:14.002Z,6.80
2022-11-23T22:19:43.149Z,6.25
2022-11-23T22:22:10.901Z,7.15
2022-11-23T22:24:38.623Z,6.30
2022-11-23T22:27:06.400Z,6.70
2022-11-23T22:29:34.206Z,6.00
2022-11-23T22:32:02.304Z,5.30
2022-11-23T22:34:33.523Z,5.80
2022-11-23T22:37:07.247Z,5.70
2022-11-23T22:39:38.215Z,6.20
2022-11-23T22:42:06.204Z,5.38
2022-11-23T22:44:34.267Z,5.63
2022-11-23T22:47:02.206Z,6.13
2022-11-23T22:49:29.982Z,5.28
2022-11-23T22:51:58.000Z,5.10
2022-11-23T22:54:28.778Z,5.80
2022-11-23T22:56:56.550Z,5.77
2022-11-23T22:59:24.263Z,5.13
2022-11-23T23:01:52.029Z,5.28
2022-11-23T23:04:19.766Z,4.90
2022-11-23T23:06:48.885Z,5.18
2022-11-23T23:09:16.920Z,5.13
2022-11-23T23:11:46.090Z,5.88
2022-11-23T23:14:13.847Z,5.40
2022-11-23T23:16:41.634Z,4.93
2022-11-23T23:19:09.581Z,5.53
2022-11-23T23:21:37.332Z,4.70
2022-11-23T23:24:05.703Z,5.20
2022-11-23T23:26:33.503Z,5.28
2022-11-23T23:29:02.713Z,4.65
2022-11-23T23:31:30.944Z,4.60
2022-11-23T23:34:01.014Z,4.45
2022-11-23T23:36:29.559Z,4.95
2022-11-23T23:38:57.814Z,4.85
2022-11-23T23:41:25.581Z,4.47
2022-11-23T23:43:53.538Z,5.22
2022-11-23T23:46:22.882Z,6.68
2022-11-23T23:48:50.933Z,6.72
2022-11-23T23:51:20.815Z,9.00
2022-11-23T23:53:48.897Z,8.52
2022-11-23T23:56:18.040Z,11.55
2022-11-23T23:58:46.284Z,11.63
